Time;durP1;ratioP1;P1;durP2;ratioP2;P2;SDS_P1;SDS_P2;PMS_P1;PMS_P2;Temp;Humidity;BMP_temperature;BMP_pressure;BME280_temperature;BME280_humidity;BME280_pressure;Samples;Min_cycle;Max_cycle;Signal;HPM_P1;HPM_P2
2022/04/27 00:00:30;;;;;;;2.33;1.70;;;21.30;34.70;;;;;;5143673;27;20015;-40
2022/04/27 00:02:56;;;;;;;2.97;1.70;;;21.40;34.80;;;;;;5143569;27;20020;-40
2022/04/27 00:05:23;;;;;;;3.85;2.00;;;21.40;34.70;;;;;;5143403;27;20030;-42
2022/04/27 00:07:49;;;;;;;2.75;1.63;;;21.40;34.80;;;;;;5125120;27;20019;-41
2022/04/27 00:10:15;;;;;;;2.65;1.95;;;21.30;34.70;;;;;;5142638;27;20137;-40
2022/04/27 00:12:41;;;;;;;2.83;1.90;;;21.40;34.80;;;;;;5141185;27;20016;-42
2022/04/27 00:15:08;;;;;;;4.15;1.98;;;21.40;34.80;;;;;;5141174;27;20030;-45
2022/04/27 00:17:35;;;;;;;2.72;1.60;;;21.30;34.70;;;;;;5141155;27;20015;-43
2022/04/27 00:20:01;;;;;;;3.15;1.80;;;21.30;34.80;;;;;;5141393;27;20039;-42
2022/04/27 00:22:28;;;;;;;3.20;1.60;;;21.30;34.80;;;;;;5123369;27;20027;-40
2022/04/27 00:25:00;;;;;;;3.35;1.80;;;21.30;34.80;;;;;;5141335;27;20048;-44
2022/04/27 00:27:29;;;;;;;2.60;1.75;;;21.30;34.90;;;;;;5142630;27;20019;-40
2022/04/27 00:29:55;;;;;;;2.85;1.90;;;21.30;35.50;;;;;;5142686;27;20060;-40
2022/04/27 00:32:22;;;;;;;3.17;1.75;;;21.30;35.00;;;;;;5143322;27;20079;-41
2022/04/27 00:34:49;;;;;;;2.80;1.80;;;21.30;35.00;;;;;;5143849;27;20031;-42
2022/04/27 00:37:15;;;;;;;2.70;1.60;;;21.30;35.00;;;;;;5143961;27;20011;-41
2022/04/27 00:39:42;;;;;;;3.05;1.80;;;21.30;35.00;;;;;;5144057;27;20477;-41
2022/04/27 00:42:18;;;;;;;3.60;1.92;;;21.30;35.00;;;;;;5142857;27;20457;-41
2022/04/27 00:44:44;;;;;;;2.67;1.77;;;21.30;35.10;;;;;;5124200;27;20106;-40
2022/04/27 00:47:11;;;;;;;2.55;1.67;;;21.30;35.00;;;;;;5142323;27;20015;-41
2022/04/27 00:49:48;;;;;;;2.83;1.80;;;21.30;35.00;;;;;;5141668;27;20024;-40
2022/04/27 00:52:14;;;;;;;1.85;1.55;;;21.30;35.00;;;;;;5140428;27;20532;-40
2022/04/27 00:54:44;;;;;;;2.58;1.63;;;21.30;35.10;;;;;;5140730;27;20015;-38
2022/04/27 00:57:10;;;;;;;3.20;2.15;;;21.30;35.10;;;;;;5142305;27;20040;-40
2022/04/27 00:59:36;;;;;;;3.20;1.73;;;21.30;35.10;;;;;;5124845;27;20026;-40
2022/04/27 01:02:04;;;;;;;3.22;2.00;;;21.30;35.20;;;;;;5125586;27;20042;-44
2022/04/27 01:04:31;;;;;;;2.38;1.60;;;21.30;35.20;;;;;;5125380;27;20023;-45
2022/04/27 01:06:56;;;;;;;3.13;1.92;;;21.30;35.20;;;;;;5124260;27;20018;-40
2022/04/27 01:09:24;;;;;;;2.90;1.70;;;21.30;35.20;;;;;;5143781;27;20012;-47
2022/04/27 01:11:50;;;;;;;3.42;1.70;;;21.20;35.30;;;;;;5107252;27;20012;-43
2022/04/27 01:14:16;;;;;;;2.67;1.70;;;21.30;35.30;;;;;;5121665;27;20007;-39
2022/04/27 01:16:42;;;;;;;2.47;1.80;;;21.20;35.80;;;;;;5139036;27;20019;-40
2022/04/27 01:19:08;;;;;;;2.60;1.75;;;21.30;35.40;;;;;;5121100;27;20022;-40
2022/04/27 01:21:35;;;;;;;2.92;1.83;;;21.20;35.30;;;;;;5139699;27;20043;-47
2022/04/27 01:24:01;;;;;;;3.03;1.70;;;21.30;35.30;;;;;;5139703;27;20515;-39
2022/04/27 01:26:27;;;;;;;2.70;1.80;;;21.20;35.30;;;;;;5140882;27;20037;-41
2022/04/27 01:28:53;;;;;;;2.80;1.77;;;21.30;35.40;;;;;;5142343;27;20057;-46
2022/04/27 01:31:19;;;;;;;4.30;2.00;;;21.20;35.30;;;;;;5124706;27;20465;-44
2022/04/27 01:33:47;;;;;;;2.80;1.70;;;21.20;35.30;;;;;;5141898;27;20019;-40
2022/04/27 01:36:15;;;;;;;2.85;1.77;;;21.20;35.40;;;;;;5141724;27;20067;-40
2022/04/27 01:38:42;;;;;;;3.60;1.90;;;21.20;35.40;;;;;;5123031;27;20015;-39
2022/04/27 01:41:08;;;;;;;3.00;1.70;;;21.20;35.40;;;;;;5143652;27;20034;-39
2022/04/27 01:43:34;;;;;;;2.75;1.73;;;21.20;35.40;;;;;;5141784;27;20491;-43
2022/04/27 01:46:01;;;;;;;3.00;1.70;;;21.20;35.50;;;;;;5140557;27;20030;-41
2022/04/27 01:48:27;;;;;;;2.95;1.83;;;21.20;35.50;;;;;;5139417;27;20016;-39
2022/04/27 01:50:53;;;;;;;2.30;1.88;;;21.20;35.50;;;;;;5137642;27;20049;-39
2022/04/27 01:56:04;;;;;;;3.20;1.85;;;21.20;35.60;;;;;;5139246;27;20034;-38
2022/04/27 01:58:30;;;;;;;3.25;1.77;;;21.20;35.60;;;;;;5139635;27;20038;-39
2022/04/27 02:00:57;;;;;;;2.35;1.60;;;21.20;35.50;;;;;;5139896;27;20019;-38
2022/04/27 02:03:23;;;;;;;3.78;1.80;;;21.20;35.50;;;;;;5139701;27;20011;-41
2022/04/27 02:05:49;;;;;;;2.85;1.80;;;21.20;35.60;;;;;;5140219;27;20083;-40
2022/04/27 02:08:16;;;;;;;4.10;1.88;;;21.20;35.60;;;;;;5139979;27;20019;-39
2022/04/27 02:10:42;;;;;;;3.67;1.80;;;21.20;35.60;;;;;;5139931;27;20007;-44
2022/04/27 02:13:09;;;;;;;2.72;1.90;;;21.10;35.70;;;;;;5120095;27;20029;-41
2022/04/27 02:15:35;;;;;;;2.58;1.70;;;21.20;35.80;;;;;;5139738;27;20019;-39
2022/04/27 02:18:01;;;;;;;3.10;1.80;;;21.10;35.80;;;;;;5139295;27;20433;-41
2022/04/27 02:20:27;;;;;;;2.05;1.70;;;21.10;35.80;;;;;;5138576;27;20047;-41
2022/04/27 02:22:53;;;;;;;2.88;1.80;;;21.20;35.80;;;;;;5119804;27;20038;-40
2022/04/27 02:25:20;;;;;;;2.65;1.83;;;21.10;35.80;;;;;;5103266;27;20074;-38
2022/04/27 02:27:45;;;;;;;2.22;1.65;;;21.10;35.80;;;;;;5138284;27;20533;-38
2022/04/27 02:30:12;;;;;;;3.13;1.75;;;21.10;35.80;;;;;;5119656;27;20488;-40
2022/04/27 02:32:38;;;;;;;2.97;1.63;;;21.10;35.80;;;;;;5119800;27;20003;-40
2022/04/27 02:35:06;;;;;;;3.22;1.80;;;21.10;35.80;;;;;;5137746;27;20087;-39
2022/04/27 02:37:32;;;;;;;2.70;1.60;;;21.10;35.80;;;;;;5138170;27;20027;-39
2022/04/27 02:39:58;;;;;;;2.47;1.77;;;21.10;35.80;;;;;;5119197;27;20022;-39
2022/04/27 02:42:24;;;;;;;2.72;1.60;;;21.10;35.80;;;;;;5120352;27;20039;-40
2022/04/27 02:44:50;;;;;;;2.70;1.58;;;21.10;35.80;;;;;;5139445;27;20019;-39
2022/04/27 02:47:16;;;;;;;3.83;1.73;;;21.10;35.80;;;;;;5121680;27;20064;-39
2022/04/27 02:52:26;;;;;;;3.45;1.83;;;21.10;35.90;;;;;;5124913;27;20062;-40
2022/04/27 02:54:52;;;;;;;3.22;2.03;;;21.10;35.90;;;;;;5141675;27;20071;-43
2022/04/27 02:57:18;;;;;;;2.55;1.80;;;21.00;35.90;;;;;;5140447;27;20073;-40
2022/04/27 02:59:44;;;;;;;3.88;2.10;;;21.10;36.00;;;;;;5139370;27;20019;-38
2022/04/27 03:02:11;;;;;;;3.58;1.90;;;21.00;36.00;;;;;;5138284;27;20047;-39
2022/04/27 03:04:37;;;;;;;2.60;1.95;;;21.00;36.00;;;;;;5120600;28;20027;-39
2022/04/27 03:07:04;;;;;;;3.03;1.85;;;21.00;36.00;;;;;;5138438;27;20015;-39
2022/04/27 03:09:29;;;;;;;3.03;1.67;;;21.00;36.00;;;;;;5138461;27;20098;-40
2022/04/27 03:11:55;;;;;;;2.40;1.60;;;21.00;36.00;;;;;;5139811;27;20039;-39
2022/04/27 03:14:21;;;;;;;3.35;1.98;;;21.00;36.00;;;;;;5121118;28;20046;-41
2022/04/27 03:16:48;;;;;;;2.85;1.80;;;21.00;36.10;;;;;;5138067;28;20076;-42
2022/04/27 03:19:14;;;;;;;3.33;1.80;;;21.00;36.10;;;;;;5137952;28;20008;-38
2022/04/27 03:21:41;;;;;;;3.22;2.30;;;21.00;36.10;;;;;;5137224;28;20466;-39
2022/04/27 03:24:07;;;;;;;2.85;1.70;;;21.00;36.10;;;;;;5137666;28;20168;-41
2022/04/27 03:26:33;;;;;;;2.67;1.85;;;21.00;36.10;;;;;;5138397;28;20095;-39
2022/04/27 03:28:59;;;;;;;2.45;2.00;;;21.00;36.10;;;;;;5138421;28;20058;-39
2022/04/27 03:31:25;;;;;;;2.75;1.70;;;21.00;36.20;;;;;;5138261;28;20011;-39
2022/04/27 03:33:51;;;;;;;2.38;1.77;;;21.00;36.20;;;;;;5137936;28;20011;-40
2022/04/27 03:36:17;;;;;;;3.72;1.65;;;21.00;36.20;;;;;;5138230;28;20111;-40
2022/04/27 03:38:43;;;;;;;4.82;2.33;;;21.00;36.20;;;;;;5138054;28;20541;-40
2022/04/27 03:41:09;;;;;;;2.25;1.65;;;20.90;36.20;;;;;;5119501;28;20011;-39
2022/04/27 03:43:35;;;;;;;3.70;1.85;;;20.90;36.30;;;;;;5138456;28;20099;-41
2022/04/27 03:46:01;;;;;;;3.45;1.50;;;20.90;36.30;;;;;;5138011;28;20026;-40
2022/04/27 03:48:27;;;;;;;2.50;1.60;;;20.90;36.30;;;;;;5119739;28;20023;-42
2022/04/27 03:50:53;;;;;;;2.38;1.65;;;20.90;36.30;;;;;;5119754;28;20373;-40
2022/04/27 03:53:19;;;;;;;2.28;1.60;;;20.90;36.30;;;;;;5138625;28;20011;-42
2022/04/27 03:55:46;;;;;;;2.20;1.70;;;20.90;36.30;;;;;;5138629;28;20520;-41
2022/04/27 03:58:11;;;;;;;2.50;1.75;;;20.90;36.30;;;;;;5103814;28;20023;-39
2022/04/27 04:00:37;;;;;;;2.65;1.65;;;20.90;36.30;;;;;;5138670;28;20007;-39
2022/04/27 04:03:04;;;;;;;3.17;1.85;;;20.90;36.30;;;;;;5141228;27;20027;-40
2022/04/27 04:05:30;;;;;;;2.80;1.75;;;20.90;36.30;;;;;;5124896;27;20011;-42
2022/04/27 04:07:56;;;;;;;2.85;1.90;;;20.90;36.30;;;;;;5125157;27;20045;-39
2022/04/27 04:10:22;;;;;;;3.10;1.60;;;20.90;36.30;;;;;;5125560;27;20007;-40
2022/04/27 04:12:48;;;;;;;2.88;1.90;;;20.90;36.40;;;;;;5125533;27;20492;-41
2022/04/27 04:15:15;;;;;;;3.10;1.73;;;20.90;36.40;;;;;;5143671;27;20023;-41
2022/04/27 04:17:44;;;;;;;2.75;1.63;;;20.90;36.40;;;;;;5143579;27;20067;-38
2022/04/27 04:20:12;;;;;;;2.13;1.67;;;20.90;36.40;;;;;;5126472;27;20118;-39
2022/04/27 04:22:37;;;;;;;2.38;1.70;;;20.80;36.40;;;;;;5143950;27;20030;-43
2022/04/27 04:30:34;;;;;;;2.00;1.77;;;20.80;36.40;;;;;;5142101;27;20521;-42
2022/04/27 04:33:00;;;;;;;3.05;2.05;;;20.90;36.50;;;;;;5140715;27;20007;-39
2022/04/27 04:35:27;;;;;;;2.70;1.73;;;20.90;36.40;;;;;;5140797;27;20541;-40
2022/04/27 04:37:54;;;;;;;2.70;1.70;;;20.90;36.50;;;;;;5141384;27;20086;-40
2022/04/27 04:40:20;;;;;;;2.10;1.60;;;20.90;36.50;;;;;;5141877;27;20230;-43
2022/04/27 04:42:46;;;;;;;4.07;1.70;;;20.80;36.50;;;;;;5144683;27;20120;-40
2022/04/27 04:45:12;;;;;;;2.42;1.77;;;20.80;36.50;;;;;;5143999;27;20038;-39
2022/04/27 04:47:42;;;;;;;3.63;1.92;;;20.90;36.50;;;;;;5143457;27;20024;-39
2022/04/27 04:50:08;;;;;;;3.10;1.80;;;20.90;36.40;;;;;;5143235;27;20019;-41
2022/04/27 04:52:35;;;;;;;2.95;1.65;;;20.90;36.40;;;;;;5144101;27;20101;-40
2022/04/27 04:55:01;;;;;;;2.83;1.90;;;20.90;36.30;;;;;;5141661;27;20034;-40
2022/04/27 04:57:27;;;;;;;3.05;1.90;;;21.00;36.20;;;;;;5142940;27;20019;-40
2022/04/27 04:59:53;;;;;;;2.55;1.80;;;21.20;36.00;;;;;;5143266;27;20015;-40
2022/04/27 05:02:19;;;;;;;1.67;1.50;;;21.20;35.80;;;;;;5142442;27;20034;-39
2022/04/27 05:04:45;;;;;;;2.83;1.73;;;21.20;35.80;;;;;;5141181;27;20027;-40
2022/04/27 05:07:11;;;;;;;3.28;1.73;;;21.20;35.80;;;;;;5142134;27;20019;-41
2022/04/27 05:09:36;;;;;;;2.78;1.77;;;21.20;35.80;;;;;;5124334;27;20007;-43
2022/04/27 05:12:03;;;;;;;2.92;1.88;;;21.20;35.70;;;;;;5143148;27;20018;-40
2022/04/27 05:14:30;;;;;;;2.63;1.63;;;21.30;35.60;;;;;;5141024;27;20047;-42
2022/04/27 05:16:56;;;;;;;2.40;1.60;;;21.30;35.40;;;;;;5142594;27;20015;-39
2022/04/27 05:19:22;;;;;;;2.03;1.50;;;21.40;35.30;;;;;;5141405;27;20023;-42
2022/04/27 05:21:49;;;;;;;2.30;1.70;;;21.40;35.20;;;;;;5141151;27;20065;-39
2022/04/27 05:24:16;;;;;;;2.40;1.60;;;21.50;35.20;;;;;;5142090;27;20039;-41
2022/04/27 05:26:41;;;;;;;3.60;1.90;;;21.50;35.00;;;;;;5141173;27;20011;-41
2022/04/27 05:32:03;;;;;;;3.13;1.65;;;21.70;34.80;;;;;;5124164;27;20030;-41
2022/04/27 05:34:33;;;;;;;2.20;1.50;;;21.80;34.80;;;;;;5140925;27;20035;-42
2022/04/27 05:36:59;;;;;;;;;;;21.80;34.60;;;;;;5141187;27;20031;-45
2022/04/27 05:39:25;;;;;;;3.50;1.80;;;21.90;34.40;;;;;;5141928;27;19982;-40
2022/04/27 05:41:51;;;;;;;2.70;1.70;;;22.00;34.40;;;;;;5120871;27;20534;-41
2022/04/27 05:44:24;;;;;;;2.20;1.50;;;22.00;34.20;;;;;;5120190;27;20007;-38
2022/04/27 05:46:57;;;;;;;3.42;1.60;;;22.10;34.10;;;;;;5106071;27;20030;-40
2022/04/27 05:49:24;;;;;;;2.30;1.60;;;22.30;33.80;;;;;;5121746;27;20003;-42
2022/04/27 05:51:50;;;;;;;2.47;1.70;;;22.50;33.60;;;;;;5121184;27;20023;-39
2022/04/27 05:54:16;;;;;;;2.15;1.40;;;22.70;33.30;;;;;;5135671;27;20007;-37
2022/04/27 05:56:42;;;;;;;2.67;1.48;;;22.90;32.90;;;;;;5101598;27;20064;-37
2022/04/27 05:59:09;;;;;;;2.47;1.50;;;23.10;32.60;;;;;;5119419;27;20056;-37
2022/04/27 06:01:35;;;;;;;2.25;1.45;;;23.20;32.30;;;;;;5118171;27;20015;-39
2022/04/27 06:04:01;;;;;;;2.38;1.50;;;23.40;31.90;;;;;;5117284;27;20007;-38
2022/04/27 06:06:28;;;;;;;2.42;1.30;;;23.60;31.70;;;;;;5136641;27;20467;-38
2022/04/27 06:08:54;;;;;;;4.93;1.50;;;23.80;31.40;;;;;;5099584;27;20040;-38
2022/04/27 06:11:20;;;;;;;1.40;1.20;;;23.90;31.20;;;;;;5135094;27;20017;-37
2022/04/27 06:13:47;;;;;;;1.92;1.50;;;24.10;30.90;;;;;;5135262;27;20043;-37
2022/04/27 06:16:13;;;;;;;2.83;1.60;;;24.20;30.70;;;;;;5135107;27;20418;-43
2022/04/27 06:18:41;;;;;;;2.15;1.60;;;24.40;30.50;;;;;;5115579;27;20391;-37
2022/04/27 06:21:10;;;;;;;4.90;1.92;;;24.50;30.30;;;;;;5133521;27;20031;-38
2022/04/27 06:23:37;;;;;;;2.72;1.58;;;24.60;30.20;;;;;;5134521;27;20094;-37
2022/04/27 06:26:05;;;;;;;3.05;1.48;;;24.70;30.00;;;;;;5134575;27;20495;-37
2022/04/27 06:28:32;;;;;;;3.13;1.38;;;24.80;30.00;;;;;;5117186;27;20086;-36
2022/04/27 06:30:57;;;;;;;1.77;1.30;;;24.80;30.10;;;;;;5136248;27;20030;-36
2022/04/27 06:33:23;;;;;;;3.15;1.50;;;24.90;30.00;;;;;;5136579;27;20016;-37
2022/04/27 06:35:51;;;;;;;3.20;1.52;;;25.00;30.00;;;;;;5135769;27;20521;-40
2022/04/27 06:38:17;;;;;;;3.95;1.60;;;25.10;29.90;;;;;;5135010;27;20015;-38
2022/04/27 06:40:42;;;;;;;5.20;1.88;;;25.20;29.90;;;;;;5116798;27;20510;-39
2022/04/27 06:43:08;;;;;;;3.55;2.05;;;25.30;29.80;;;;;;5134616;27;20503;-37
2022/04/27 06:45:36;;;;;;;5.15;1.50;;;25.40;29.80;;;;;;5134518;27;20449;-37
2022/04/27 06:48:05;;;;;;;4.03;1.70;;;25.40;29.70;;;;;;5100598;27;20439;-38
2022/04/27 06:50:31;;;;;;;3.90;1.80;;;25.50;29.60;;;;;;5116781;27;20018;-37
2022/04/27 06:53:00;;;;;;;5.78;2.03;;;25.70;30.00;;;;;;5135393;27;20008;-38
2022/04/27 06:55:26;;;;;;;3.78;1.77;;;25.80;29.50;;;;;;5135283;27;20030;-38
2022/04/27 06:57:52;;;;;;;5.70;1.70;;;25.80;29.40;;;;;;5116730;27;20389;-37
2022/04/27 07:00:18;;;;;;;4.05;1.52;;;25.80;29.30;;;;;;5134821;27;20144;-38
2022/04/27 07:02:44;;;;;;;6.18;2.38;;;25.80;29.40;;;;;;5117075;27;20068;-38
2022/04/27 07:05:16;;;;;;;4.00;1.80;;;25.90;29.30;;;;;;5135092;27;20058;-39
2022/04/27 07:07:42;;;;;;;3.45;1.52;;;26.00;29.20;;;;;;5135609;27;20015;-39
2022/04/27 07:10:08;;;;;;;4.57;1.48;;;26.00;29.10;;;;;;5136193;27;20019;-40
2022/04/27 07:12:33;;;;;;;7.18;1.75;;;26.00;29.20;;;;;;5117933;28;20022;-39
2022/04/27 07:14:59;;;;;;;4.65;1.55;;;25.90;29.10;;;;;;5135585;27;20043;-38
2022/04/27 07:17:25;;;;;;;3.78;1.77;;;26.10;29.20;;;;;;5134296;28;20422;-38
2022/04/27 07:19:50;;;;;;;4.70;1.90;;;26.20;29.00;;;;;;5115022;28;20040;-36
2022/04/27 07:22:17;;;;;;;4.88;1.60;;;26.30;28.90;;;;;;5115102;28;20084;-36
2022/04/27 07:24:44;;;;;;;3.28;1.60;;;26.40;28.80;;;;;;5132770;28;20450;-37
2022/04/27 07:27:10;;;;;;;4.50;1.38;;;26.50;28.70;;;;;;5133572;28;20497;-37
2022/04/27 07:29:36;;;;;;;6.28;1.58;;;26.60;28.60;;;;;;5134918;28;20016;-37
2022/04/27 07:32:02;;;;;;;3.10;1.55;;;26.70;28.50;;;;;;5134669;28;20016;-38
2022/04/27 07:34:28;;;;;;;4.57;1.33;;;26.80;28.40;;;;;;5115457;28;20020;-36
2022/04/27 07:36:54;;;;;;;4.03;1.40;;;26.90;28.30;;;;;;5134644;27;20144;-36
2022/04/27 07:39:19;;;;;;;3.72;1.70;;;27.00;28.20;;;;;;5137548;27;20501;-36
2022/04/27 07:41:45;;;;;;;7.05;1.70;;;27.10;28.10;;;;;;5118992;27;20023;-37
2022/04/27 07:44:14;;;;;;;7.05;1.55;;;27.10;28.00;;;;;;5138192;27;20007;-37
2022/04/27 07:46:40;;;;;;;6.43;1.35;;;27.20;27.90;;;;;;5137800;27;20481;-38
2022/04/27 07:49:06;;;;;;;3.58;1.30;;;27.20;27.80;;;;;;5138081;27;20068;-37
2022/04/27 07:51:32;;;;;;;5.65;1.40;;;27.30;27.70;;;;;;5137534;27;20016;-38
2022/04/27 07:54:00;;;;;;;6.45;2.03;;;27.40;27.60;;;;;;5137905;27;20023;-38
2022/04/27 07:56:26;;;;;;;5.97;1.40;;;27.40;27.50;;;;;;5137363;27;20019;-38
2022/04/27 07:58:51;;;;;;;5.28;1.73;;;27.50;27.40;;;;;;5119673;27;20381;-39
2022/04/27 08:01:17;;;;;;;5.15;1.70;;;27.50;27.30;;;;;;5101127;27;20453;-37
2022/04/27 08:03:43;;;;;;;4.70;1.40;;;27.40;27.30;;;;;;5085148;27;20047;-38
2022/04/27 08:06:09;;;;;;;6.82;1.50;;;27.20;27.30;;;;;;5102649;27;20579;-39
2022/04/27 08:08:35;;;;;;;4.85;1.40;;;27.00;27.10;;;;;;5103653;27;20027;-40
2022/04/27 08:11:01;;;;;;;4.13;1.55;;;27.00;27.10;;;;;;5120611;27;20027;-40
2022/04/27 08:13:27;;;;;;;4.47;1.45;;;27.00;27.00;;;;;;5103373;27;20027;-40
2022/04/27 08:15:53;;;;;;;4.30;1.55;;;26.90;26.90;;;;;;5138426;27;20019;-41
2022/04/27 08:18:20;;;;;;;2.60;1.30;;;26.90;26.80;;;;;;5136375;27;20075;-38
2022/04/27 08:23:32;;;;;;;5.85;1.65;;;26.80;26.60;;;;;;5140716;27;20066;-40
2022/04/27 08:25:59;;;;;;;5.88;1.50;;;26.80;26.60;;;;;;5123558;27;20435;-38
2022/04/27 08:28:25;;;;;;;5.90;1.35;;;26.80;26.50;;;;;;5139804;27;20015;-40
2022/04/27 08:30:51;;;;;;;3.55;1.50;;;26.80;26.40;;;;;;5140463;27;20007;-38
2022/04/27 08:33:17;;;;;;;5.90;1.90;;;26.70;26.30;;;;;;5140288;27;20036;-37
2022/04/27 08:35:43;;;;;;;4.30;1.30;;;26.70;26.20;;;;;;5140280;27;20007;-39
2022/04/27 08:38:11;;;;;;;3.95;1.40;;;26.60;26.20;;;;;;5105595;27;20501;-40
2022/04/27 08:40:44;;;;;;;3.60;1.40;;;26.60;26.00;;;;;;5121742;27;20015;-38
2022/04/27 08:43:10;;;;;;;4.45;1.48;;;26.60;26.10;;;;;;5121792;27;20026;-39
2022/04/27 08:45:37;;;;;;;4.20;1.20;;;26.50;25.90;;;;;;5140169;27;20027;-39
2022/04/27 08:48:03;;;;;;;3.08;1.40;;;26.50;25.80;;;;;;5139673;27;20090;-37
2022/04/27 08:50:30;;;;;;;5.28;1.40;;;26.50;25.80;;;;;;5139826;27;20011;-38
2022/04/27 08:52:55;;;;;;;4.88;1.50;;;26.40;25.80;;;;;;5141092;27;20019;-38
2022/04/27 08:55:23;;;;;;;6.00;1.48;;;26.50;25.70;;;;;;5123492;27;20020;-38
2022/04/27 08:57:49;;;;;;;4.65;1.40;;;26.50;25.60;;;;;;5140268;27;20513;-41
2022/04/27 09:00:16;;;;;;;6.15;1.40;;;26.60;25.50;;;;;;5121455;27;20429;-38
2022/04/27 09:02:42;;;;;;;4.35;1.20;;;26.70;25.50;;;;;;5138416;27;20019;-38
2022/04/27 09:05:12;;;;;;;5.38;1.17;;;26.70;25.30;;;;;;5118945;27;20028;-40
2022/04/27 09:07:41;;;;;;;2.42;1.10;;;26.80;25.20;;;;;;5137182;27;20385;-40
2022/04/27 09:10:08;;;;;;;;;;;26.80;25.20;;;;;;5136434;27;20060;-39
2022/04/27 09:12:36;;;;;;;3.83;1.60;;;26.70;25.10;;;;;;5118665;27;20411;-41
2022/04/27 09:15:07;;;;;;;5.00;1.25;;;26.70;25.10;;;;;;5138967;27;20016;-37
2022/04/27 09:23:02;;;;;;;4.18;1.38;;;26.80;24.80;;;;;;5138079;27;20030;-37
2022/04/27 09:25:35;;;;;;;3.95;1.38;;;26.80;24.80;;;;;;5137552;27;20031;-38
2022/04/27 09:28:02;;;;;;;3.35;1.33;;;26.80;24.80;;;;;;5137063;27;20011;-43
2022/04/27 09:30:32;;;;;;;3.60;1.30;;;26.80;24.70;;;;;;5137510;27;20045;-38
2022/04/27 09:32:58;;;;;;;6.50;1.65;;;26.70;24.70;;;;;;5119070;27;20501;-39
2022/04/27 09:35:36;;;;;;;4.63;1.30;;;26.80;24.70;;;;;;5137970;27;20015;-40
2022/04/27 09:38:19;;;;;;;3.78;1.20;;;26.80;24.80;;;;;;5120772;27;20019;-40
2022/04/27 09:40:56;;;;;;;4.18;1.30;;;26.80;24.70;;;;;;5138964;27;20015;-40
2022/04/27 09:43:42;;;;;;;5.82;1.83;;;26.80;24.60;;;;;;5138762;27;20050;-40
2022/04/27 09:46:24;;;;;;;3.60;1.55;;;26.80;24.60;;;;;;5138269;27;20019;-41
2022/04/27 09:49:02;;;;;;;3.17;1.15;;;26.80;24.70;;;;;;5137117;27;20018;-39
2022/04/27 09:51:30;;;;;;;2.30;1.30;;;26.80;24.60;;;;;;5137421;27;20015;-38
2022/04/27 09:53:56;;;;;;;4.13;1.30;;;26.80;24.60;;;;;;5136854;27;20044;-38
2022/04/27 09:56:23;;;;;;;4.00;1.40;;;26.80;24.70;;;;;;5138307;27;20042;-39
2022/04/27 09:58:49;;;;;;;6.70;1.42;;;26.80;24.70;;;;;;5101279;27;20016;-41
2022/04/27 10:01:15;;;;;;;3.83;1.45;;;26.70;24.60;;;;;;5117960;27;20026;-40
2022/04/27 10:03:42;;;;;;;3.80;1.30;;;26.70;24.70;;;;;;5138261;27;20098;-40
2022/04/27 10:06:08;;;;;;;5.90;1.60;;;26.80;24.80;;;;;;5137032;27;20027;-39
2022/04/27 10:08:35;;;;;;;5.95;1.50;;;26.70;24.70;;;;;;5118007;27;20015;-39
2022/04/27 10:11:00;;;;;;;5.43;1.45;;;26.70;24.70;;;;;;5136454;27;20019;-41
2022/04/27 10:13:26;;;;;;;5.72;1.52;;;26.70;24.70;;;;;;5118499;27;20015;-44
2022/04/27 10:15:52;;;;;;;5.03;1.65;;;26.60;24.80;;;;;;5118786;27;20023;-40
2022/04/27 10:18:19;;;;;;;8.88;1.70;;;26.60;24.70;;;;;;5136867;27;20025;-39
2022/04/27 10:20:45;;;;;;;3.15;1.45;;;26.60;24.80;;;;;;5136742;27;20070;-39
2022/04/27 10:23:27;;;;;;;4.90;1.67;;;26.60;24.90;;;;;;5119411;27;20018;-43
2022/04/27 10:26:16;;;;;;;5.78;1.65;;;26.50;24.90;;;;;;5104078;27;20023;-40
2022/04/27 10:28:50;;;;;;;5.97;1.77;;;26.50;24.90;;;;;;5137909;27;20064;-40
2022/04/27 10:31:46;;;;;;;5.65;1.65;;;26.50;24.90;;;;;;5138334;27;20318;-41
2022/04/27 10:34:21;;;;;;;5.45;1.77;;;26.40;25.00;;;;;;5138351;27;20094;-42
2022/04/27 10:36:48;;;;;;;5.13;1.80;;;26.30;25.00;;;;;;5139026;27;20026;-40
2022/04/27 10:39:16;;;;;;;4.70;1.50;;;26.30;25.10;;;;;;5137904;27;20064;-40
2022/04/27 10:41:47;;;;;;;5.15;1.70;;;26.30;25.10;;;;;;5139456;27;20465;-43
2022/04/27 10:44:14;;;;;;;5.25;1.70;;;26.20;25.10;;;;;;5138321;27;20054;-40
2022/04/27 10:46:43;;;;;;;3.85;1.50;;;26.20;25.10;;;;;;5137667;27;20054;-39
2022/04/27 10:49:25;;;;;;;3.70;1.55;;;26.20;25.20;;;;;;5138051;27;20016;-40
2022/04/27 10:52:08;;;;;;;4.47;1.50;;;26.10;25.20;;;;;;5136722;27;20457;-40
2022/04/27 10:54:37;;;;;;;3.83;1.40;;;26.10;25.20;;;;;;5136646;27;20019;-41
2022/04/27 10:57:15;;;;;;;6.43;1.52;;;25.90;25.30;;;;;;5136452;27;20034;-39
2022/04/27 10:59:44;;;;;;;3.83;1.50;;;25.90;25.30;;;;;;5137499;27;20124;-40
2022/04/27 11:02:33;;;;;;;4.50;1.67;;;25.80;25.30;;;;;;5136613;27;20011;-41
2022/04/27 11:05:00;;;;;;;4.50;1.60;;;25.80;25.30;;;;;;5135890;27;20020;-38
2022/04/27 11:07:43;;;;;;;5.53;1.70;;;25.80;25.30;;;;;;5118522;27;20022;-39
2022/04/27 11:10:15;;;;;;;3.90;1.83;;;25.80;25.30;;;;;;5120334;28;20042;-39
2022/04/27 11:12:44;;;;;;;6.07;1.77;;;25.80;25.30;;;;;;5118595;27;20014;-40
2022/04/27 11:15:11;;;;;;;3.47;1.58;;;25.70;25.30;;;;;;5137375;27;20011;-40
2022/04/27 11:17:37;;;;;;;4.10;1.40;;;25.60;25.30;;;;;;5138197;28;20011;-43
2022/04/27 11:20:04;;;;;;;4.05;1.80;;;25.60;25.30;;;;;;5119709;28;20039;-41
2022/04/27 11:22:37;;;;;;;4.55;1.73;;;25.40;25.30;;;;;;5137636;28;20168;-43
2022/04/27 11:25:08;;;;;;;3.03;1.52;;;25.40;25.40;;;;;;5136713;28;20492;-41
2022/04/27 11:27:34;;;;;;;7.43;1.60;;;25.30;25.40;;;;;;5136281;28;20011;-44
2022/04/27 11:30:02;;;;;;;2.88;1.70;;;25.20;25.40;;;;;;5136157;28;20087;-41
2022/04/27 11:32:31;;;;;;;5.82;1.98;;;25.20;25.40;;;;;;5117996;28;20098;-40
2022/04/27 11:34:56;;;;;;;4.57;1.97;;;25.10;25.50;;;;;;5136152;28;20016;-39
2022/04/27 11:37:22;;;;;;;3.25;2.00;;;25.10;25.50;;;;;;5136116;28;20021;-39
2022/04/27 11:39:48;;;;;;;2.85;1.80;;;25.00;25.50;;;;;;5135949;28;20507;-41
2022/04/27 11:42:16;;;;;;;6.65;2.30;;;24.80;25.50;;;;;;5135652;28;20015;-43
2022/04/27 11:44:42;;;;;;;5.00;1.58;;;24.80;25.50;;;;;;5135225;28;20024;-42
2022/04/27 11:47:30;;;;;;;3.22;1.73;;;24.80;25.50;;;;;;5117501;28;20047;-40
2022/04/27 11:50:02;;;;;;;3.90;1.83;;;24.80;25.60;;;;;;5135720;28;20007;-41
2022/04/27 11:52:28;;;;;;;4.38;1.60;;;24.80;25.60;;;;;;5135620;28;20027;-42
2022/04/27 11:55:07;;;;;;;3.90;1.80;;;24.70;25.60;;;;;;5117631;28;20010;-42
2022/04/27 11:57:34;;;;;;;5.82;2.25;;;24.70;25.60;;;;;;5135909;28;20372;-39
2022/04/27 12:00:02;;;;;;;3.70;2.08;;;24.70;25.60;;;;;;5135982;28;20011;-41
2022/04/27 12:02:28;;;;;;;2.90;1.80;;;24.60;25.60;;;;;;5136022;28;20019;-42
2022/04/27 12:04:58;;;;;;;4.65;2.10;;;24.50;25.70;;;;;;5136317;28;20054;-42
2022/04/27 12:07:23;;;;;;;5.32;1.88;;;24.50;25.70;;;;;;5137165;28;20018;-45
2022/04/27 12:10:03;;;;;;;2.53;1.70;;;24.40;25.70;;;;;;5136814;28;20096;-41
2022/04/27 12:12:30;;;;;;;3.22;1.90;;;24.40;25.70;;;;;;5136765;28;20039;-37
2022/04/27 12:14:56;;;;;;;3.80;1.90;;;24.30;25.90;;;;;;5137617;28;20473;-41
2022/04/27 12:17:44;;;;;;;4.00;1.88;;;24.10;25.90;;;;;;5119721;28;20125;-39
2022/04/27 12:20:27;;;;;;;2.92;1.90;;;24.10;26.10;;;;;;5138939;28;20062;-42
2022/04/27 12:22:54;;;;;;;2.47;1.83;;;24.10;26.10;;;;;;5125065;27;20018;-41
2022/04/27 12:25:20;;;;;;;4.65;2.03;;;24.10;26.10;;;;;;5144237;27;20426;-44
2022/04/27 12:27:48;;;;;;;4.13;1.90;;;24.10;26.20;;;;;;5125916;27;20019;-43
2022/04/27 12:30:19;;;;;;;3.75;2.20;;;24.10;26.20;;;;;;5143349;27;20019;-42
2022/04/27 12:32:45;;;;;;;3.10;1.90;;;24.10;26.20;;;;;;5144540;27;20015;-41
2022/04/27 12:37:56;;;;;;;4.50;2.25;;;24.00;26.30;;;;;;5126801;27;20099;-38
2022/04/27 12:40:22;;;;;;;3.85;2.20;;;23.90;26.40;;;;;;5123038;27;20026;-37
2022/04/27 12:43:00;;;;;;;6.13;2.42;;;23.70;26.60;;;;;;5140400;27;20042;-38
2022/04/27 12:45:27;;;;;;;7.07;2.10;;;23.70;26.60;;;;;;5139682;27;20023;-45
2022/04/27 12:47:52;;;;;;;3.42;1.95;;;23.80;26.60;;;;;;5122742;27;20466;-41
2022/04/27 12:50:19;;;;;;;7.07;2.20;;;23.80;26.60;;;;;;5141484;27;20031;-41
2022/04/27 12:52:46;;;;;;;7.75;2.33;;;23.80;26.50;;;;;;5139984;27;20010;-38
2022/04/27 12:55:12;;;;;;;7.20;2.20;;;23.80;26.50;;;;;;5140082;27;20029;-41
2022/04/27 12:57:50;;;;;;;7.35;2.30;;;23.90;26.60;;;;;;5141037;27;20038;-42
2022/04/27 13:00:21;;;;;;;15.65;2.80;;;23.90;26.70;;;;;;5140309;27;20019;-39
2022/04/27 13:02:47;;;;;;;7.10;2.42;;;23.80;26.80;;;;;;5143312;27;20011;-40
2022/04/27 13:05:13;;;;;;;9.90;2.50;;;23.90;26.90;;;;;;5123596;27;20048;-41
2022/04/27 13:07:40;;;;;;;9.35;2.67;;;23.80;27.00;;;;;;5139120;27;20473;-40
2022/04/27 13:12:52;;;;;;;9.48;2.65;;;23.80;27.10;;;;;;5139479;27;20110;-41
2022/04/27 13:15:18;;;;;;;12.63;3.20;;;23.80;27.30;;;;;;5120253;27;20453;-39
2022/04/27 13:17:44;;;;;;;9.82;2.42;;;23.70;27.50;;;;;;5121210;27;20023;-39